sensor_id;sensor_type;location;lat;lon;timestamp;pressure;altitude;pressure_sealevel;temperature;humidity
39793;BME280;26080;42.264;24.536;2023-06-22T00:01:49;99506.72;;;19.44;100.00
39793;BME280;26080;42.264;24.536;2023-06-22T00:04:15;99510.59;;;19.51;100.00
39793;BME280;26080;42.264;24.536;2023-06-22T00:06:40;99508.56;;;19.55;100.00
39793;BME280;26080;42.264;24.536;2023-06-22T00:09:06;99509.41;;;19.33;100.00
39793;BME280;26080;42.264;24.536;2023-06-22T00:11:33;99521.16;;;19.19;100.00
39793;BME280;26080;42.264;24.536;2023-06-22T00:14:02;99520.53;;;19.15;100.00
39793;BME280;26080;42.264;24.536;2023-06-22T00:16:27;99534.75;;;19.14;100.00
39793;BME280;26080;42.264;24.536;2023-06-22T00:18:53;99535.59;;;19.15;100.00
39793;BME280;26080;42.264;24.536;2023-06-22T00:21:18;99528.00;;;19.33;100.00
39793;BME280;26080;42.264;24.536;2023-06-22T00:23:46;99535.22;;;19.31;100.00
39793;BME280;26080;42.264;24.536;2023-06-22T00:26:12;99534.28;;;19.20;100.00
39793;BME280;26080;42.264;24.536;2023-06-22T00:28:38;99536.09;;;19.09;100.00
39793;BME280;26080;42.264;24.536;2023-06-22T00:31:03;99533.56;;;19.07;100.00
39793;BME280;26080;42.264;24.536;2023-06-22T00:33:29;99541.41;;;19.09;100.00
39793;BME280;26080;42.264;24.536;2023-06-22T00:35:54;99537.91;;;18.97;100.00
39793;BME280;26080;42.264;24.536;2023-06-22T00:38:20;99540.53;;;18.86;100.00
39793;BME280;26080;42.264;24.536;2023-06-22T00:40:46;99544.03;;;18.86;100.00
39793;BME280;26080;42.264;24.536;2023-06-22T00:43:11;99540.75;;;18.72;100.00
39793;BME280;26080;42.264;24.536;2023-06-22T00:45:37;99543.31;;;18.49;100.00
39793;BME280;26080;42.264;24.536;2023-06-22T00:48:03;99522.41;;;18.22;100.00
39793;BME280;26080;42.264;24.536;2023-06-22T00:50:30;99543.97;;;18.18;100.00
39793;BME280;26080;42.264;24.536;2023-06-22T00:53:00;99533.75;;;18.24;100.00
39793;BME280;26080;42.264;24.536;2023-06-22T00:55:26;99531.84;;;18.26;100.00
39793;BME280;26080;42.264;24.536;2023-06-22T00:57:52;99552.09;;;18.03;100.00
39793;BME280;26080;42.264;24.536;2023-06-22T01:00:22;99542.28;;;17.69;100.00
39793;BME280;26080;42.264;24.536;2023-06-22T01:02:50;99536.59;;;17.50;100.00
39793;BME280;26080;42.264;24.536;2023-06-22T01:05:18;99539.75;;;17.55;100.00
39793;BME280;26080;42.264;24.536;2023-06-22T01:10:30;99523.94;;;17.29;100.00
39793;BME280;26080;42.264;24.536;2023-06-22T01:13:18;99533.84;;;17.38;100.00
39793;BME280;26080;42.264;24.536;2023-06-22T01:15:49;99531.16;;;17.27;100.00
39793;BME280;26080;42.264;24.536;2023-06-22T01:18:18;99519.81;;;17.12;100.00
39793;BME280;26080;42.264;24.536;2023-06-22T01:20:45;99522.28;;;17.15;100.00
39793;BME280;26080;42.264;24.536;2023-06-22T01:26:17;99521.19;;;17.31;100.00
39793;BME280;26080;42.264;24.536;2023-06-22T01:28:53;99521.94;;;17.20;100.00
39793;BME280;26080;42.264;24.536;2023-06-22T01:31:23;99521.44;;;17.15;100.00
39793;BME280;26080;42.264;24.536;2023-06-22T01:33:55;99525.97;;;17.13;100.00
39793;BME280;26080;42.264;24.536;2023-06-22T01:36:23;99523.31;;;17.13;100.00
39793;BME280;26080;42.264;24.536;2023-06-22T01:38:50;99527.13;;;17.09;100.00
39793;BME280;26080;42.264;24.536;2023-06-22T01:41:17;99524.38;;;17.10;100.00
39793;BME280;26080;42.264;24.536;2023-06-22T01:43:43;99526.38;;;17.20;100.00
39793;BME280;26080;42.264;24.536;2023-06-22T01:46:11;99525.97;;;17.13;100.00
39793;BME280;26080;42.264;24.536;2023-06-22T01:48:38;99519.09;;;16.98;100.00
39793;BME280;26080;42.264;24.536;2023-06-22T01:51:04;99533.28;;;16.97;100.00
39793;BME280;26080;42.264;24.536;2023-06-22T01:53:29;99533.50;;;16.94;100.00
39793;BME280;26080;42.264;24.536;2023-06-22T01:55:56;99520.63;;;16.89;100.00
39793;BME280;26080;42.264;24.536;2023-06-22T01:58:25;99526.53;;;16.93;100.00
39793;BME280;26080;42.264;24.536;2023-06-22T02:01:10;99528.66;;;16.87;100.00
39793;BME280;26080;42.264;24.536;2023-06-22T02:03:50;99517.13;;;16.88;100.00
39793;BME280;26080;42.264;24.536;2023-06-22T02:06:27;99526.94;;;16.99;100.00
39793;BME280;26080;42.264;24.536;2023-06-22T02:08:59;99532.03;;;16.90;100.00
39793;BME280;26080;42.264;24.536;2023-06-22T02:11:26;99532.16;;;16.75;100.00
39793;BME280;26080;42.264;24.536;2023-06-22T02:13:55;99531.81;;;16.67;100.00
39793;BME280;26080;42.264;24.536;2023-06-22T02:16:22;99533.81;;;16.64;100.00
39793;BME280;26080;42.264;24.536;2023-06-22T02:18:48;99523.09;;;16.52;100.00
39793;BME280;26080;42.264;24.536;2023-06-22T02:21:18;99535.00;;;16.72;100.00
39793;BME280;26080;42.264;24.536;2023-06-22T02:23:44;99529.91;;;16.69;100.00
39793;BME280;26080;42.264;24.536;2023-06-22T02:26:09;99526.59;;;16.66;100.00
39793;BME280;26080;42.264;24.536;2023-06-22T02:28:35;99525.66;;;16.54;100.00
39793;BME280;26080;42.264;24.536;2023-06-22T02:31:00;99535.13;;;16.44;100.00
39793;BME280;26080;42.264;24.536;2023-06-22T02:33:26;99536.09;;;16.43;100.00
39793;BME280;26080;42.264;24.536;2023-06-22T02:35:52;99543.19;;;16.55;100.00
39793;BME280;26080;42.264;24.536;2023-06-22T02:38:18;99541.09;;;16.60;100.00
39793;BME280;26080;42.264;24.536;2023-06-22T02:40:44;99540.34;;;16.58;100.00
39793;BME280;26080;42.264;24.536;2023-06-22T02:43:10;99546.38;;;16.47;100.00
39793;BME280;26080;42.264;24.536;2023-06-22T02:45:35;99560.97;;;16.53;100.00
39793;BME280;26080;42.264;24.536;2023-06-22T02:48:00;99560.75;;;16.56;100.00
39793;BME280;26080;42.264;24.536;2023-06-22T02:50:26;99562.44;;;16.57;100.00
39793;BME280;26080;42.264;24.536;2023-06-22T02:52:51;99554.22;;;16.62;100.00
39793;BME280;26080;42.264;24.536;2023-06-22T02:55:17;99561.59;;;16.56;100.00
39793;BME280;26080;42.264;24.536;2023-06-22T02:57:42;99564.13;;;16.58;100.00
39793;BME280;26080;42.264;24.536;2023-06-22T03:00:12;99559.94;;;16.68;100.00
39793;BME280;26080;42.264;24.536;2023-06-22T03:02:43;99556.53;;;16.66;100.00
39793;BME280;26080;42.264;24.536;2023-06-22T03:05:09;99537.56;;;16.74;100.00
39793;BME280;26080;42.264;24.536;2023-06-22T03:07:39;99558.91;;;17.09;100.00
39793;BME280;26080;42.264;24.536;2023-06-22T03:10:05;99554.16;;;17.14;100.00
39793;BME280;26080;42.264;24.536;2023-06-22T03:12:30;99559.31;;;17.28;100.00
39793;BME280;26080;42.264;24.536;2023-06-22T03:14:56;99563.31;;;17.34;100.00
39793;BME280;26080;42.264;24.536;2023-06-22T03:17:21;99560.97;;;17.42;100.00
39793;BME280;26080;42.264;24.536;2023-06-22T03:19:47;99563.06;;;17.50;100.00
39793;BME280;26080;42.264;24.536;2023-06-22T03:22:12;99562.00;;;17.52;100.00
39793;BME280;26080;42.264;24.536;2023-06-22T03:24:39;99560.84;;;17.56;100.00
39793;BME280;26080;42.264;24.536;2023-06-22T03:27:04;99552.03;;;17.68;100.00
39793;BME280;26080;42.264;24.536;2023-06-22T03:29:30;99557.25;;;17.81;100.00
39793;BME280;26080;42.264;24.536;2023-06-22T03:31:56;99546.28;;;17.74;100.00
39793;BME280;26080;42.264;24.536;2023-06-22T03:34:21;99575.16;;;18.14;100.00
39793;BME280;26080;42.264;24.536;2023-06-22T03:36:47;99571.63;;;18.38;100.00
39793;BME280;26080;42.264;24.536;2023-06-22T03:39:12;99582.13;;;18.39;100.00
39793;BME280;26080;42.264;24.536;2023-06-22T03:41:38;99582.00;;;18.41;100.00
39793;BME280;26080;42.264;24.536;2023-06-22T03:44:04;99588.84;;;18.08;100.00
39793;BME280;26080;42.264;24.536;2023-06-22T03:46:29;99592.41;;;18.20;100.00
39793;BME280;26080;42.264;24.536;2023-06-22T03:48:55;99560.44;;;18.45;100.00
39793;BME280;26080;42.264;24.536;2023-06-22T03:51:20;99576.25;;;19.04;100.00
39793;BME280;26080;42.264;24.536;2023-06-22T03:53:45;99578.47;;;19.33;100.00
39793;BME280;26080;42.264;24.536;2023-06-22T03:56:11;99592.34;;;19.36;100.00
39793;BME280;26080;42.264;24.536;2023-06-22T03:58:37;99585.03;;;20.26;100.00
39793;BME280;26080;42.264;24.536;2023-06-22T04:01:08;99565.09;;;21.15;100.00
39793;BME280;26080;42.264;24.536;2023-06-22T04:03:37;99596.84;;;22.08;100.00
39793;BME280;26080;42.264;24.536;2023-06-22T04:06:02;99588.13;;;22.64;100.00
39793;BME280;26080;42.264;24.536;2023-06-22T04:08:28;99602.47;;;22.92;100.00
39793;BME280;26080;42.264;24.536;2023-06-22T04:10:53;99602.78;;;23.54;100.00
39793;BME280;26080;42.264;24.536;2023-06-22T04:13:19;99587.66;;;24.00;100.00
39793;BME280;26080;42.264;24.536;2023-06-22T04:15:44;99607.06;;;24.91;100.00
39793;BME280;26080;42.264;24.536;2023-06-22T04:18:10;99591.88;;;25.51;100.00
39793;BME280;26080;42.264;24.536;2023-06-22T04:20:35;99597.53;;;26.90;86.36
39793;BME280;26080;42.264;24.536;2023-06-22T04:23:01;99591.31;;;28.00;79.99
39793;BME280;26080;42.264;24.536;2023-06-22T04:25:26;99596.03;;;27.59;80.79
39793;BME280;26080;42.264;24.536;2023-06-22T04:27:52;99597.69;;;27.68;79.52
39793;BME280;26080;42.264;24.536;2023-06-22T04:30:17;99597.00;;;27.74;78.99
39793;BME280;26080;42.264;24.536;2023-06-22T04:32:43;99601.84;;;28.10;79.34
39793;BME280;26080;42.264;24.536;2023-06-22T04:35:09;99602.78;;;28.71;78.59
39793;BME280;26080;42.264;24.536;2023-06-22T04:37:35;99600.69;;;28.81;78.75
39793;BME280;26080;42.264;24.536;2023-06-22T04:40:00;99596.66;;;28.77;78.74
39793;BME280;26080;42.264;24.536;2023-06-22T04:42:26;99591.38;;;29.06;78.97
39793;BME280;26080;42.264;24.536;2023-06-22T04:44:52;99585.69;;;29.31;77.94
39793;BME280;26080;42.264;24.536;2023-06-22T04:47:18;99588.22;;;29.76;74.55
39793;BME280;26080;42.264;24.536;2023-06-22T04:49:43;99588.56;;;29.73;75.55
39793;BME280;26080;42.264;24.536;2023-06-22T04:52:10;99585.16;;;29.50;74.87
39793;BME280;26080;42.264;24.536;2023-06-22T04:54:38;99570.63;;;29.66;74.73
39793;BME280;26080;42.264;24.536;2023-06-22T04:57:05;99584.69;;;29.61;75.67
39793;BME280;26080;42.264;24.536;2023-06-22T04:59:35;99589.56;;;29.87;73.76
39793;BME280;26080;42.264;24.536;2023-06-22T05:02:02;99584.31;;;29.64;73.79
39793;BME280;26080;42.264;24.536;2023-06-22T05:04:30;99589.72;;;29.49;75.40
39793;BME280;26080;42.264;24.536;2023-06-22T05:06:59;99585.97;;;29.65;74.86
39793;BME280;26080;42.264;24.536;2023-06-22T05:09:28;99581.16;;;30.12;73.94
39793;BME280;26080;42.264;24.536;2023-06-22T05:11:54;99561.50;;;30.03;77.42
39793;BME280;26080;42.264;24.536;2023-06-22T05:14:20;99575.03;;;30.24;75.48
39793;BME280;26080;42.264;24.536;2023-06-22T05:16:45;99580.00;;;30.63;74.33
39793;BME280;26080;42.264;24.536;2023-06-22T05:19:11;99582.00;;;30.33;74.18
39793;BME280;26080;42.264;24.536;2023-06-22T05:21:37;99584.84;;;30.47;73.43
39793;BME280;26080;42.264;24.536;2023-06-22T05:24:04;99579.78;;;30.86;69.66
39793;BME280;26080;42.264;24.536;2023-06-22T05:26:30;99584.19;;;30.23;73.42
39793;BME280;26080;42.264;24.536;2023-06-22T05:28:56;99586.69;;;29.44;73.81
39793;BME280;26080;42.264;24.536;2023-06-22T05:31:24;99586.69;;;29.00;74.95
39793;BME280;26080;42.264;24.536;2023-06-22T05:33:52;99571.81;;;28.29;78.48
39793;BME280;26080;42.264;24.536;2023-06-22T05:36:18;99580.63;;;28.15;80.03
39793;BME280;26080;42.264;24.536;2023-06-22T05:38:45;99579.31;;;28.11;81.84
39793;BME280;26080;42.264;24.536;2023-06-22T05:41:10;99583.06;;;27.70;82.24
39793;BME280;26080;42.264;24.536;2023-06-22T05:43:36;99582.38;;;27.21;87.30
39793;BME280;26080;42.264;24.536;2023-06-22T05:46:04;99587.41;;;27.00;87.85
39793;BME280;26080;42.264;24.536;2023-06-22T05:48:30;99590.09;;;27.24;86.70
39793;BME280;26080;42.264;24.536;2023-06-22T05:50:56;99569.13;;;26.95;90.73
39793;BME280;26080;42.264;24.536;2023-06-22T05:53:21;99565.25;;;26.98;87.86
39793;BME280;26080;42.264;24.536;2023-06-22T05:55:47;99571.66;;;26.72;90.02
39793;BME280;26080;42.264;24.536;2023-06-22T05:58:12;99591.63;;;26.86;91.51
39793;BME280;26080;42.264;24.536;2023-06-22T06:00:41;99586.97;;;26.64;91.43
39793;BME280;26080;42.264;24.536;2023-06-22T06:03:08;99599.03;;;27.08;92.52
39793;BME280;26080;42.264;24.536;2023-06-22T06:05:34;99579.69;;;26.97;92.36
39793;BME280;26080;42.264;24.536;2023-06-22T06:08:00;99593.84;;;27.07;94.15
39793;BME280;26080;42.264;24.536;2023-06-22T06:10:26;99587.09;;;26.95;94.48
39793;BME280;26080;42.264;24.536;2023-06-22T06:12:54;99590.09;;;27.00;92.47
39793;BME280;26080;42.264;24.536;2023-06-22T06:15:20;99584.75;;;27.08;90.96
39793;BME280;26080;42.264;24.536;2023-06-22T06:17:50;99585.41;;;26.85;92.31
39793;BME280;26080;42.264;24.536;2023-06-22T06:20:19;99580.38;;;26.99;91.99
39793;BME280;26080;42.264;24.536;2023-06-22T06:22:45;99577.31;;;27.26;94.31
39793;BME280;26080;42.264;24.536;2023-06-22T06:25:11;99564.88;;;27.25;90.84
39793;BME280;26080;42.264;24.536;2023-06-22T06:27:45;99568.28;;;26.95;90.11
39793;BME280;26080;42.264;24.536;2023-06-22T06:30:11;99565.25;;;26.98;89.65
39793;BME280;26080;42.264;24.536;2023-06-22T06:32:38;99573.50;;;27.04;95.65
39793;BME280;26080;42.264;24.536;2023-06-22T06:35:10;99566.44;;;27.11;92.34
39793;BME280;26080;42.264;24.536;2023-06-22T06:37:37;99565.28;;;27.14;88.82
39793;BME280;26080;42.264;24.536;2023-06-22T06:40:04;99570.59;;;27.22;91.95
39793;BME280;26080;42.264;24.536;2023-06-22T06:42:32;99568.22;;;27.35;88.51
39793;BME280;26080;42.264;24.536;2023-06-22T06:44:57;99570.22;;;27.33;87.43
39793;BME280;26080;42.264;24.536;2023-06-22T06:47:22;99565.72;;;27.26;89.06
39793;BME280;26080;42.264;24.536;2023-06-22T06:49:48;99566.59;;;27.10;89.16
39793;BME280;26080;42.264;24.536;2023-06-22T06:52:13;99576.00;;;26.98;88.27
39793;BME280;26080;42.264;24.536;2023-06-22T06:54:39;99572.69;;;27.04;90.45
39793;BME280;26080;42.264;24.536;2023-06-22T06:57:04;99573.16;;;27.07;89.62
39793;BME280;26080;42.264;24.536;2023-06-22T06:59:30;99564.97;;;27.01;90.69
39793;BME280;26080;42.264;24.536;2023-06-22T07:01:55;99567.25;;;27.12;89.13
39793;BME280;26080;42.264;24.536;2023-06-22T07:04:21;99569.22;;;27.26;89.15
39793;BME280;26080;42.264;24.536;2023-06-22T07:06:46;99563.13;;;27.40;91.18
39793;BME280;26080;42.264;24.536;2023-06-22T07:09:12;99563.56;;;27.60;89.09
39793;BME280;26080;42.264;24.536;2023-06-22T07:11:37;99561.53;;;27.62;86.39
39793;BME280;26080;42.264;24.536;2023-06-22T07:14:03;99570.03;;;27.82;88.08
39793;BME280;26080;42.264;24.536;2023-06-22T07:16:28;99569.97;;;27.98;86.91
39793;BME280;26080;42.264;24.536;2023-06-22T07:18:55;99569.88;;;28.07;86.34
39793;BME280;26080;42.264;24.536;2023-06-22T07:21:20;99573.19;;;28.17;84.15
39793;BME280;26080;42.264;24.536;2023-06-22T07:23:46;99566.84;;;28.10;85.00
39793;BME280;26080;42.264;24.536;2023-06-22T07:26:11;99567.16;;;28.15;84.63
39793;BME280;26080;42.264;24.536;2023-06-22T07:28:38;99566.13;;;28.16;81.86
39793;BME280;26080;42.264;24.536;2023-06-22T07:31:06;99561.03;;;28.29;84.73
39793;BME280;26080;42.264;24.536;2023-06-22T07:33:31;99566.66;;;28.42;82.13
39793;BME280;26080;42.264;24.536;2023-06-22T07:35:57;99577.94;;;28.60;83.10
39793;BME280;26080;42.264;24.536;2023-06-22T07:38:22;99564.69;;;28.74;84.66
39793;BME280;26080;42.264;24.536;2023-06-22T07:40:48;99562.63;;;28.76;80.13
39793;BME280;26080;42.264;24.536;2023-06-22T07:43:13;99564.31;;;28.77;78.41
39793;BME280;26080;42.264;24.536;2023-06-22T07:45:39;99558.19;;;28.83;76.45
39793;BME280;26080;42.264;24.536;2023-06-22T07:48:07;99564.03;;;28.95;78.02
39793;BME280;26080;42.264;24.536;2023-06-22T07:50:32;99567.00;;;29.14;83.73
39793;BME280;26080;42.264;24.536;2023-06-22T07:52:57;99548.75;;;29.16;78.01
39793;BME280;26080;42.264;24.536;2023-06-22T07:55:23;99539.13;;;29.07;75.44
39793;BME280;26080;42.264;24.536;2023-06-22T07:57:49;99547.38;;;29.35;75.36
39793;BME280;26080;42.264;24.536;2023-06-22T08:00:17;99539.75;;;29.39;77.90
39793;BME280;26080;42.264;24.536;2023-06-22T08:02:45;99540.59;;;29.54;75.66
39793;BME280;26080;42.264;24.536;2023-06-22T08:05:11;99524.47;;;29.46;75.52
39793;BME280;26080;42.264;24.536;2023-06-22T08:07:38;99533.69;;;29.66;74.63
39793;BME280;26080;42.264;24.536;2023-06-22T08:10:10;99529.19;;;29.73;72.32
39793;BME280;26080;42.264;24.536;2023-06-22T08:12:36;99533.00;;;29.79;71.70
39793;BME280;26080;42.264;24.536;2023-06-22T08:15:02;99528.34;;;29.73;69.61
39793;BME280;26080;42.264;24.536;2023-06-22T08:17:29;99521.56;;;29.77;70.98
39793;BME280;26080;42.264;24.536;2023-06-22T08:19:54;99523.19;;;29.93;71.10
39793;BME280;26080;42.264;24.536;2023-06-22T08:22:20;99522.97;;;29.94;70.71
39793;BME280;26080;42.264;24.536;2023-06-22T08:24:45;99522.41;;;29.99;68.97
39793;BME280;26080;42.264;24.536;2023-06-22T08:27:11;99518.63;;;30.15;67.39
39793;BME280;26080;42.264;24.536;2023-06-22T08:29:46;99504.13;;;30.16;65.90
39793;BME280;26080;42.264;24.536;2023-06-22T08:32:12;99507.94;;;30.28;64.38
39793;BME280;26080;42.264;24.536;2023-06-22T08:45:02;99505.25;;;30.77;60.23
39793;BME280;26080;42.264;24.536;2023-06-22T08:47:28;99507.81;;;30.85;56.61
39793;BME280;26080;42.264;24.536;2023-06-22T08:53:15;99516.53;;;31.15;58.91
39793;BME280;26080;42.264;24.536;2023-06-22T08:55:40;99518.25;;;31.23;59.22
39793;BME280;26080;42.264;24.536;2023-06-22T08:58:06;99520.69;;;31.18;56.67
39793;BME280;26080;42.264;24.536;2023-06-22T09:00:31;99527.38;;;31.57;55.50
39793;BME280;26080;42.264;24.536;2023-06-22T09:03:00;99516.66;;;31.83;52.00
39793;BME280;26080;42.264;24.536;2023-06-22T09:05:37;99520.47;;;32.08;54.64
39793;BME280;26080;42.264;24.536;2023-06-22T09:08:02;99502.91;;;31.85;56.20
39793;BME280;26080;42.264;24.536;2023-06-22T09:10:28;99507.78;;;31.54;57.84
39793;BME280;26080;42.264;24.536;2023-06-22T09:12:53;99521.53;;;31.53;51.94
39793;BME280;26080;42.264;24.536;2023-06-22T09:15:19;99505.03;;;31.48;51.28
39793;BME280;26080;42.264;24.536;2023-06-22T09:17:44;99487.91;;;31.34;52.54
39793;BME280;26080;42.264;24.536;2023-06-22T09:20:12;99498.09;;;31.32;55.82
39793;BME280;26080;42.264;24.536;2023-06-22T09:22:37;99512.78;;;31.64;55.76
39793;BME280;26080;42.264;24.536;2023-06-22T09:25:03;99512.06;;;31.90;56.86
39793;BME280;26080;42.264;24.536;2023-06-22T09:27:29;99509.34;;;31.90;53.19
39793;BME280;26080;42.264;24.536;2023-06-22T09:29:55;99499.59;;;32.02;52.62
39793;BME280;26080;42.264;24.536;2023-06-22T09:32:20;99485.59;;;31.79;51.33
39793;BME280;26080;42.264;24.536;2023-06-22T09:34:46;99495.03;;;32.09;50.01
39793;BME280;26080;42.264;24.536;2023-06-22T09:37:12;99503.00;;;32.37;50.53
39793;BME280;26080;42.264;24.536;2023-06-22T09:39:37;99492.16;;;32.44;48.69
39793;BME280;26080;42.264;24.536;2023-06-22T09:42:04;99486.72;;;32.64;46.53
39793;BME280;26080;42.264;24.536;2023-06-22T09:44:32;99493.78;;;32.71;50.04
39793;BME280;26080;42.264;24.536;2023-06-22T09:46:57;99491.09;;;32.45;51.74
39793;BME280;26080;42.264;24.536;2023-06-22T09:49:23;99498.59;;;32.56;52.44
39793;BME280;26080;42.264;24.536;2023-06-22T09:51:58;99490.47;;;32.76;51.42
39793;BME280;26080;42.264;24.536;2023-06-22T09:54:23;99487.31;;;32.72;48.94
39793;BME280;26080;42.264;24.536;2023-06-22T09:56:48;99502.56;;;32.67;50.53
39793;BME280;26080;42.264;24.536;2023-06-22T09:59:14;99487.13;;;32.67;50.01
39793;BME280;26080;42.264;24.536;2023-06-22T10:01:39;99508.41;;;32.57;51.28
39793;BME280;26080;42.264;24.536;2023-06-22T10:04:05;99493.59;;;32.60;49.91
39793;BME280;26080;42.264;24.536;2023-06-22T10:06:30;99499.25;;;32.38;53.73
39793;BME280;26080;42.264;24.536;2023-06-22T10:08:56;99491.31;;;32.37;55.05
39793;BME280;26080;42.264;24.536;2023-06-22T10:11:21;99495.06;;;32.29;51.78
39793;BME280;26080;42.264;24.536;2023-06-22T10:13:52;99493.41;;;32.28;50.10
39793;BME280;26080;42.264;24.536;2023-06-22T10:16:17;99489.66;;;32.29;52.09
39793;BME280;26080;42.264;24.536;2023-06-22T10:18:43;99484.41;;;32.34;49.03
39793;BME280;26080;42.264;24.536;2023-06-22T10:21:08;99479.59;;;32.69;46.36
39793;BME280;26080;42.264;24.536;2023-06-22T10:23:34;99461.47;;;32.90;47.57
39793;BME280;26080;42.264;24.536;2023-06-22T10:25:59;99482.44;;;33.14;51.21
39793;BME280;26080;42.264;24.536;2023-06-22T10:28:25;99471.53;;;33.27;46.48
39793;BME280;26080;42.264;24.536;2023-06-22T10:30:50;99473.28;;;33.09;50.96
39793;BME280;26080;42.264;24.536;2023-06-22T10:33:16;99471.47;;;32.69;50.51
39793;BME280;26080;42.264;24.536;2023-06-22T10:35:41;99466.91;;;32.57;50.06
39793;BME280;26080;42.264;24.536;2023-06-22T10:38:07;99473.16;;;32.44;50.76
39793;BME280;26080;42.264;24.536;2023-06-22T10:40:33;99465.03;;;32.24;48.83
39793;BME280;26080;42.264;24.536;2023-06-22T10:42:58;99472.72;;;32.27;50.96
39793;BME280;26080;42.264;24.536;2023-06-22T10:45:24;99464.00;;;32.32;52.23
39793;BME280;26080;42.264;24.536;2023-06-22T10:47:49;99462.97;;;32.33;51.09
39793;BME280;26080;42.264;24.536;2023-06-22T10:50:15;99450.41;;;32.19;51.89
39793;BME280;26080;42.264;24.536;2023-06-22T10:52:41;99457.97;;;32.36;51.52
39793;BME280;26080;42.264;24.536;2023-06-22T10:55:08;99450.88;;;32.49;52.61
39793;BME280;26080;42.264;24.536;2023-06-22T10:57:34;99452.09;;;32.46;52.07
39793;BME280;26080;42.264;24.536;2023-06-22T11:00:14;99456.69;;;32.32;49.26
39793;BME280;26080;42.264;24.536;2023-06-22T11:02:40;99424.38;;;32.18;48.30
39793;BME280;26080;42.264;24.536;2023-06-22T11:05:06;99446.06;;;32.44;49.15
39793;BME280;26080;42.264;24.536;2023-06-22T11:07:31;99448.97;;;32.62;55.23
39793;BME280;26080;42.264;24.536;2023-06-22T11:09:58;99449.38;;;32.66;54.59
39793;BME280;26080;42.264;24.536;2023-06-22T11:12:23;99441.22;;;32.86;47.68
39793;BME280;26080;42.264;24.536;2023-06-22T11:14:49;99437.47;;;32.74;46.29
39793;BME280;26080;42.264;24.536;2023-06-22T11:17:17;99434.56;;;32.82;46.52
39793;BME280;26080;42.264;24.536;2023-06-22T11:19:44;99444.53;;;32.88;45.93
39793;BME280;26080;42.264;24.536;2023-06-22T11:22:09;99438.66;;;33.04;45.30
39793;BME280;26080;42.264;24.536;2023-06-22T11:24:35;99437.34;;;33.20;44.79
39793;BME280;26080;42.264;24.536;2023-06-22T11:27:00;99441.16;;;32.99;46.33
39793;BME280;26080;42.264;24.536;2023-06-22T11:29:26;99442.00;;;33.06;46.19
39793;BME280;26080;42.264;24.536;2023-06-22T11:31:52;99452.38;;;33.22;49.23
39793;BME280;26080;42.264;24.536;2023-06-22T11:34:18;99445.19;;;33.48;50.71
39793;BME280;26080;42.264;24.536;2023-06-22T11:36:44;99437.88;;;33.42;49.63
39793;BME280;26080;42.264;24.536;2023-06-22T11:39:11;99424.63;;;33.20;50.38
39793;BME280;26080;42.264;24.536;2023-06-22T11:41:39;99436.06;;;33.36;44.79
39793;BME280;26080;42.264;24.536;2023-06-22T11:44:04;99443.97;;;33.30;43.69
39793;BME280;26080;42.264;24.536;2023-06-22T11:46:30;99426.41;;;33.46;43.25
39793;BME280;26080;42.264;24.536;2023-06-22T11:48:57;99432.50;;;33.28;48.89
39793;BME280;26080;42.264;24.536;2023-06-22T11:51:22;99429.84;;;33.15;45.23
39793;BME280;26080;42.264;24.536;2023-06-22T11:53:48;99429.50;;;32.98;44.75
39793;BME280;26080;42.264;24.536;2023-06-22T11:56:13;99419.31;;;32.74;44.36
39793;BME280;26080;42.264;24.536;2023-06-22T11:58:39;99432.50;;;32.57;45.46
39793;BME280;26080;42.264;24.536;2023-06-22T12:01:04;99430.84;;;32.50;46.75
39793;BME280;26080;42.264;24.536;2023-06-22T12:03:30;99423.75;;;32.22;46.57
39793;BME280;26080;42.264;24.536;2023-06-22T12:05:56;99424.16;;;32.26;46.72
39793;BME280;26080;42.264;24.536;2023-06-22T12:08:21;99410.00;;;32.10;46.22
39793;BME280;26080;42.264;24.536;2023-06-22T12:10:47;99432.31;;;32.12;45.95
39793;BME280;26080;42.264;24.536;2023-06-22T12:13:13;99428.97;;;32.17;48.55
39793;BME280;26080;42.264;24.536;2023-06-22T12:15:39;99420.03;;;32.30;48.75
39793;BME280;26080;42.264;24.536;2023-06-22T12:18:04;99425.22;;;32.51;45.44
39793;BME280;26080;42.264;24.536;2023-06-22T12:20:30;99420.38;;;32.66;44.22
39793;BME280;26080;42.264;24.536;2023-06-22T12:29:40;99413.44;;;32.97;46.89
39793;BME280;26080;42.264;24.536;2023-06-22T12:32:06;99409.66;;;33.05;49.81
39793;BME280;26080;42.264;24.536;2023-06-22T12:34:32;99406.94;;;33.05;49.19
39793;BME280;26080;42.264;24.536;2023-06-22T12:36:57;99408.88;;;32.91;44.80
39793;BME280;26080;42.264;24.536;2023-06-22T12:39:26;99392.41;;;32.79;46.29
39793;BME280;26080;42.264;24.536;2023-06-22T12:41:51;99391.91;;;33.02;46.29
39793;BME280;26080;42.264;24.536;2023-06-22T12:44:17;99398.84;;;32.91;46.24
39793;BME280;26080;42.264;24.536;2023-06-22T12:46:43;99396.50;;;33.08;43.70
39793;BME280;26080;42.264;24.536;2023-06-22T12:49:09;99395.94;;;32.93;46.05
39793;BME280;26080;42.264;24.536;2023-06-22T12:51:39;99382.38;;;32.73;46.49
39793;BME280;26080;42.264;24.536;2023-06-22T12:54:06;99378.28;;;32.57;47.01
39793;BME280;26080;42.264;24.536;2023-06-22T12:56:32;99391.03;;;32.50;47.48
39793;BME280;26080;42.264;24.536;2023-06-22T12:58:58;99394.53;;;32.57;53.10
39793;BME280;26080;42.264;24.536;2023-06-22T13:01:32;99398.97;;;32.32;49.14
39793;BME280;26080;42.264;24.536;2023-06-22T13:04:16;99390.44;;;32.35;47.25
39793;BME280;26080;42.264;24.536;2023-06-22T13:06:56;99387.47;;;32.43;48.27
39793;BME280;26080;42.264;24.536;2023-06-22T13:09:31;99375.59;;;32.44;46.82
39793;BME280;26080;42.264;24.536;2023-06-22T13:11:56;99392.84;;;32.69;45.24